createdAt,value
2017-02-21T00:00:20.470Z,0
2017-02-21T00:01:25.584Z,0
2017-02-21T00:02:30.718Z,0
2017-02-21T00:03:35.844Z,0
2017-02-21T00:04:40.944Z,0
2017-02-21T00:05:46.081Z,0
2017-02-21T00:06:52.181Z,0
2017-02-21T00:07:56.342Z,0
2017-02-21T00:09:02.577Z,0
2017-02-21T00:10:06.628Z,0
2017-02-21T00:11:12.867Z,0
2017-02-21T00:12:18.971Z,0
2017-02-21T00:13:25.067Z,0
2017-02-21T00:14:31.166Z,0
2017-02-21T00:15:37.266Z,0
2017-02-21T00:16:43.364Z,0
2017-02-21T00:17:48.532Z,0
2017-02-21T00:18:53.663Z,0
2017-02-21T00:19:59.764Z,0
2017-02-21T00:21:05.868Z,0
2017-02-21T00:22:11.026Z,0
2017-02-21T00:23:16.147Z,0
2017-02-21T00:24:22.249Z,0
2017-02-21T00:25:27.512Z,0
2017-02-21T00:26:32.892Z,0
2017-02-21T00:27:38.982Z,0
2017-02-21T00:28:44.166Z,0
2017-02-21T00:29:50.218Z,0
2017-02-21T00:30:56.320Z,0
2017-02-21T00:32:01.452Z,0
2017-02-21T00:33:06.583Z,0
2017-02-21T00:34:11.708Z,0
2017-02-21T00:35:16.818Z,0
2017-02-21T00:36:22.926Z,0
2017-02-21T00:37:29.021Z,0
2017-02-21T00:38:33.187Z,0
2017-02-21T00:39:39.281Z,0
2017-02-21T00:40:45.374Z,0
2017-02-21T00:41:49.540Z,0
2017-02-21T00:42:55.640Z,0
2017-02-21T00:43:59.798Z,0
2017-02-21T00:45:05.908Z,0
2017-02-21T00:46:11.070Z,0
2017-02-21T00:47:17.176Z,0
2017-02-21T00:48:22.367Z,0
2017-02-21T00:49:28.461Z,0
2017-02-21T00:50:34.555Z,0
2017-02-21T00:51:40.721Z,0
2017-02-21T00:52:46.763Z,0
2017-02-21T00:53:52.872Z,0
2017-02-21T00:54:57.982Z,0
2017-02-21T00:56:04.089Z,0
2017-02-21T00:57:10.255Z,0
2017-02-21T00:58:16.347Z,0
2017-02-21T00:59:22.448Z,0
2017-02-21T01:00:27.575Z,0
2017-02-21T01:01:33.669Z,0
2017-02-21T01:02:39.772Z,0
2017-02-21T01:03:45.873Z,0
2017-02-21T01:04:51.975Z,0
2017-02-21T01:05:58.072Z,0
2017-02-21T01:07:03.200Z,0
2017-02-21T01:08:08.325Z,0
2017-02-21T01:09:12.490Z,0
2017-02-21T01:10:17.626Z,0
2017-02-21T01:11:23.721Z,0
2017-02-21T01:12:29.826Z,0
2017-02-21T01:13:35.947Z,0
2017-02-21T01:14:42.025Z,0
2017-02-21T01:15:48.121Z,0
2017-02-21T01:16:54.225Z,0
2017-02-21T01:18:00.323Z,0
2017-02-21T01:19:06.412Z,0
2017-02-21T01:20:11.519Z,0
2017-02-21T01:21:16.651Z,0
2017-02-21T01:22:22.738Z,0
2017-02-21T01:23:27.863Z,0
2017-02-21T01:24:33.977Z,0
2017-02-21T01:25:40.062Z,0
2017-02-21T01:26:45.197Z,0
2017-02-21T01:27:51.295Z,0
2017-02-21T01:28:57.391Z,0
2017-02-21T01:30:02.530Z,0
2017-02-21T01:31:07.657Z,0
2017-02-21T01:32:13.749Z,0
2017-02-21T01:33:18.879Z,0
2017-02-21T01:34:24.964Z,0
2017-02-21T01:35:27.158Z,0
2017-02-21T01:36:31.320Z,0
2017-02-21T01:37:37.413Z,0
2017-02-21T01:38:41.579Z,0
2017-02-21T01:39:45.741Z,0
2017-02-21T01:40:51.864Z,0
2017-02-21T01:41:58.059Z,0
2017-02-21T01:43:04.152Z,0
2017-02-21T01:44:09.294Z,0
2017-02-21T01:45:13.415Z,0
2017-02-21T01:46:19.515Z,0
2017-02-21T01:47:24.640Z,0
2017-02-21T01:48:29.776Z,0
2017-02-21T01:49:35.035Z,0
2017-02-21T01:50:41.131Z,0
2017-02-21T01:51:45.261Z,0
2017-02-21T01:52:51.358Z,0
2017-02-21T01:53:57.451Z,0
2017-02-21T01:55:03.546Z,0
2017-02-21T01:56:09.647Z,0
2017-02-21T01:57:15.759Z,0
2017-02-21T01:58:21.860Z,0
2017-02-21T01:59:26.984Z,0
2017-02-21T02:00:31.123Z,0
2017-02-21T02:01:36.253Z,0
2017-02-21T02:02:41.384Z,0
2017-02-21T02:03:46.531Z,0
2017-02-21T02:04:52.602Z,0
2017-02-21T02:05:57.731Z,0
2017-02-21T02:07:01.899Z,0
2017-02-21T02:08:08.000Z,0
2017-02-21T02:09:12.149Z,0
2017-02-21T02:10:16.311Z,0
2017-02-21T02:11:22.472Z,0
2017-02-21T02:12:27.604Z,0
2017-02-21T02:13:33.701Z,0
2017-02-21T02:14:38.826Z,0
2017-02-21T02:15:44.917Z,0
2017-02-21T02:16:50.038Z,0
2017-02-21T02:17:55.202Z,0
2017-02-21T02:19:01.299Z,0
2017-02-21T02:20:06.439Z,0
2017-02-21T02:21:11.565Z,0
2017-02-21T02:22:16.704Z,0
2017-02-21T02:23:20.834Z,0
2017-02-21T02:24:25.964Z,0
2017-02-21T02:25:31.091Z,0
2017-02-21T02:26:35.256Z,0
2017-02-21T02:28:45.479Z,0
2017-02-21T02:29:49.641Z,0
2017-02-21T02:30:53.812Z,0
2017-02-21T02:31:59.906Z,0
2017-02-21T02:33:05.035Z,0
2017-02-21T02:34:10.164Z,0
2017-02-21T02:35:16.264Z,0
2017-02-21T02:36:20.422Z,0
2017-02-21T02:37:23.583Z,0
2017-02-21T02:38:29.698Z,0
2017-02-21T02:39:34.853Z,0
2017-02-21T02:40:39.952Z,0
2017-02-21T02:41:46.047Z,0
2017-02-21T02:42:50.205Z,0
2017-02-21T02:43:56.320Z,0
2017-02-21T02:45:01.439Z,0
2017-02-21T02:46:05.724Z,0
2017-02-21T02:47:11.827Z,0
2017-02-21T02:48:16.956Z,0
2017-02-21T02:49:22.092Z,0
2017-02-21T02:50:27.200Z,0
2017-02-21T02:51:32.329Z,0
2017-02-21T02:52:37.459Z,0
2017-02-21T02:53:41.619Z,0
2017-02-21T02:54:47.717Z,0
2017-02-21T02:55:52.813Z,0
2017-02-21T02:56:58.957Z,0
2017-02-21T02:58:03.089Z,0
2017-02-21T02:59:09.186Z,0
2017-02-21T03:00:14.324Z,0
2017-02-21T03:01:19.440Z,0
2017-02-21T03:02:24.573Z,0
2017-02-21T03:03:29.711Z,0
2017-02-21T03:04:35.803Z,0
2017-02-21T03:05:41.896Z,0
2017-02-21T03:06:45.086Z,0
2017-02-21T03:07:49.208Z,0
2017-02-21T03:08:54.344Z,0
2017-02-21T03:10:00.447Z,0
2017-02-21T03:11:05.572Z,0
2017-02-21T03:12:10.701Z,0
2017-02-21T03:13:14.941Z,0
2017-02-21T03:14:20.076Z,0
2017-02-21T03:15:26.188Z,0
2017-02-21T03:16:31.277Z,0
2017-02-21T03:17:35.411Z,0
2017-02-21T03:18:38.618Z,0
2017-02-21T03:19:44.767Z,0
2017-02-21T03:20:50.854Z,0
2017-02-21T03:21:56.953Z,0
2017-02-21T03:23:03.053Z,0
2017-02-21T03:24:07.212Z,0
2017-02-21T03:25:12.340Z,0
2017-02-21T03:26:18.441Z,0
2017-02-21T03:27:24.550Z,0
2017-02-21T03:28:28.699Z,0
2017-02-21T03:29:34.777Z,0
2017-02-21T03:30:38.918Z,0
2017-02-21T03:31:45.017Z,0
2017-02-21T03:32:51.117Z,0
2017-02-21T03:33:55.274Z,0
2017-02-21T03:35:00.372Z,0
2017-02-21T03:36:06.481Z,0
2017-02-21T03:37:12.581Z,0
2017-02-21T03:38:16.739Z,0
2017-02-21T03:39:21.862Z,0
2017-02-21T03:40:26.986Z,0
2017-02-21T03:41:33.131Z,0
2017-02-21T03:42:39.225Z,0
2017-02-21T03:43:43.385Z,0
2017-02-21T03:44:49.485Z,0
2017-02-21T03:45:55.578Z,0
2017-02-21T03:46:59.727Z,0
2017-02-21T03:48:03.881Z,0
2017-02-21T03:49:09.976Z,0
2017-02-21T03:50:16.068Z,0
2017-02-21T03:51:21.197Z,0
2017-02-21T03:52:27.297Z,0
2017-02-21T03:53:32.424Z,0
2017-02-21T03:54:37.541Z,0
2017-02-21T03:55:42.637Z,0
2017-02-21T03:56:47.763Z,0
2017-02-21T03:57:53.863Z,0
2017-02-21T03:58:57.229Z,0
2017-02-21T04:00:03.343Z,0
2017-02-21T04:01:07.509Z,0
2017-02-21T04:02:13.616Z,0
2017-02-21T04:03:19.719Z,0
2017-02-21T04:04:24.846Z,0
2017-02-21T04:05:29.978Z,0
2017-02-21T04:06:36.075Z,0
2017-02-21T04:07:42.175Z,0
2017-02-21T04:08:48.292Z,0
2017-02-21T04:09:54.527Z,0
2017-02-21T04:10:58.554Z,0
2017-02-21T04:12:04.652Z,0
2017-02-21T04:13:09.741Z,0
2017-02-21T04:14:15.843Z,0
2017-02-21T04:15:20.971Z,0
2017-02-21T04:16:26.078Z,0
2017-02-21T04:17:32.176Z,0
2017-02-21T04:18:37.306Z,0
2017-02-21T04:19:43.403Z,0
2017-02-21T04:20:49.503Z,0
2017-02-21T04:21:54.633Z,0
2017-02-21T04:23:00.722Z,0
2017-02-21T04:24:05.852Z,0
2017-02-21T04:25:10.009Z,0
2017-02-21T04:26:15.137Z,0
2017-02-21T04:27:19.268Z,0
2017-02-21T04:28:24.377Z,0
2017-02-21T04:29:29.475Z,0
2017-02-21T04:30:34.608Z,0
2017-02-21T04:31:40.705Z,0
2017-02-21T04:32:46.796Z,0
2017-02-21T04:33:52.892Z,0
2017-02-21T04:34:57.994Z,0
2017-02-21T04:36:04.121Z,0
2017-02-21T04:37:09.246Z,0
2017-02-21T04:38:13.392Z,0
2017-02-21T04:39:19.478Z,0
2017-02-21T04:40:24.605Z,0
2017-02-21T04:41:30.697Z,0
2017-02-21T04:42:33.870Z,0
2017-02-21T04:43:39.953Z,0
2017-02-21T04:44:46.055Z,0
2017-02-21T04:45:52.181Z,0
2017-02-21T04:46:56.326Z,0
2017-02-21T04:48:02.414Z,0
2017-02-21T04:49:06.617Z,0
2017-02-21T04:50:11.723Z,0
2017-02-21T04:51:17.821Z,0
2017-02-21T04:52:22.945Z,0
2017-02-21T04:53:29.056Z,0
2017-02-21T04:54:35.157Z,0
2017-02-21T04:55:39.314Z,0
2017-02-21T04:56:44.435Z,0
2017-02-21T04:57:48.606Z,0
2017-02-21T04:58:52.763Z,0
2017-02-21T04:59:56.933Z,0
2017-02-21T05:01:02.062Z,0
2017-02-21T05:02:06.221Z,0
2017-02-21T05:03:12.320Z,0
2017-02-21T05:04:18.409Z,0
2017-02-21T05:05:23.511Z,0
2017-02-21T05:06:28.702Z,0
2017-02-21T05:07:34.804Z,0
2017-02-21T05:08:40.914Z,0
2017-02-21T05:09:47.002Z,0
2017-02-21T05:10:52.132Z,0
2017-02-21T05:11:57.233Z,0
2017-02-21T05:13:02.373Z,0
2017-02-21T05:14:07.533Z,0
2017-02-21T05:15:12.638Z,0
2017-02-21T05:16:18.747Z,0
2017-02-21T05:17:23.878Z,0
2017-02-21T05:18:29.010Z,0
2017-02-21T05:19:34.134Z,0
2017-02-21T05:20:37.322Z,0
2017-02-21T05:21:43.472Z,0
2017-02-21T05:22:49.573Z,0
2017-02-21T05:23:54.706Z,0
2017-02-21T05:25:00.820Z,0
2017-02-21T05:26:06.912Z,0
2017-02-21T05:27:11.043Z,0
2017-02-21T05:28:17.138Z,0
2017-02-21T05:29:21.265Z,0
2017-02-21T05:30:27.363Z,0
2017-02-21T05:31:32.471Z,0
2017-02-21T05:32:38.625Z,0
2017-02-21T05:33:42.753Z,0
2017-02-21T05:34:46.914Z,0
2017-02-21T05:35:52.041Z,0
2017-02-21T05:36:57.173Z,0
2017-02-21T05:38:03.270Z,0
2017-02-21T05:39:08.408Z,0
2017-02-21T05:40:13.539Z,0
2017-02-21T05:41:19.637Z,0
2017-02-21T05:42:23.792Z,0
2017-02-21T05:43:28.906Z,0
2017-02-21T05:44:34.034Z,0
2017-02-21T05:45:40.134Z,0
2017-02-21T05:46:46.231Z,0
2017-02-21T05:47:51.351Z,0
2017-02-21T05:48:57.440Z,0
2017-02-21T05:50:01.609Z,0
2017-02-21T05:51:06.853Z,0
2017-02-21T05:52:13.006Z,0
2017-02-21T05:53:17.166Z,0
2017-02-21T05:54:22.297Z,0
2017-02-21T05:55:27.428Z,0
2017-02-21T05:56:32.573Z,0
2017-02-21T05:57:38.649Z,0
2017-02-21T05:58:44.745Z,0
2017-02-21T05:59:50.844Z,0
2017-02-21T06:00:56.942Z,0
2017-02-21T06:02:00.109Z,4
2017-02-21T06:03:05.241Z,4
2017-02-21T06:04:10.336Z,0
2017-02-21T06:05:14.473Z,4
2017-02-21T06:06:19.610Z,4
2017-02-21T06:07:25.706Z,4
2017-02-21T06:08:30.798Z,4
2017-02-21T06:09:35.932Z,4
2017-02-21T06:10:41.077Z,4
2017-02-21T06:11:45.233Z,4
2017-02-21T06:12:51.333Z,8
2017-02-21T06:13:57.448Z,12
2017-02-21T06:15:02.562Z,16
2017-02-21T06:16:07.691Z,20
2017-02-21T06:17:12.817Z,28
2017-02-21T06:18:18.933Z,28
2017-02-21T06:19:25.015Z,32
2017-02-21T06:20:31.104Z,36
2017-02-21T06:21:37.204Z,44
2017-02-21T06:22:42.341Z,44
2017-02-21T06:23:46.502Z,56
2017-02-21T06:24:51.630Z,56
2017-02-21T06:25:57.716Z,52
2017-02-21T06:27:03.817Z,64
2017-02-21T06:28:09.919Z,88
2017-02-21T06:29:16.137Z,112
2017-02-21T06:30:22.239Z,124
2017-02-21T06:31:28.326Z,140
2017-02-21T06:32:33.456Z,156
2017-02-21T06:33:38.595Z,176
2017-02-21T06:34:42.751Z,192
2017-02-21T06:35:46.936Z,208
2017-02-21T06:36:52.039Z,228
2017-02-21T06:37:58.139Z,228
2017-02-21T06:39:03.263Z,252
2017-02-21T06:40:08.390Z,264
2017-02-21T06:41:12.546Z,260
2017-02-21T06:42:16.697Z,308
2017-02-21T06:43:21.855Z,356
2017-02-21T06:44:27.954Z,348
2017-02-21T06:45:33.082Z,408
2017-02-21T06:46:39.183Z,424
2017-02-21T06:47:45.303Z,468
2017-02-21T06:48:49.439Z,492
2017-02-21T06:49:54.571Z,520
2017-02-21T06:51:00.658Z,488
2017-02-21T06:52:04.819Z,492
2017-02-21T06:53:07.978Z,592
2017-02-21T06:54:14.068Z,648
2017-02-21T06:55:20.166Z,620
2017-02-21T06:56:26.283Z,688
2017-02-21T06:57:32.365Z,832
2017-02-21T06:59:41.680Z,908
2017-02-21T07:00:46.768Z,912
2017-02-21T07:01:51.914Z,900
2017-02-21T07:02:57.999Z,908
2017-02-21T07:04:02.135Z,916
2017-02-21T07:05:06.286Z,1068
2017-02-21T07:06:10.447Z,1204
2017-02-21T07:07:15.580Z,1216
2017-02-21T07:08:20.679Z,1256
2017-02-21T07:09:26.773Z,1436
2017-02-21T07:10:32.927Z,1604
2017-02-21T07:11:39.044Z,1836
2017-02-21T07:12:45.121Z,1804
2017-02-21T07:13:50.253Z,1616
2017-02-21T07:14:56.348Z,1612
2017-02-21T07:16:00.478Z,1788
2017-02-21T07:17:05.610Z,1964
2017-02-21T07:18:11.698Z,1996
2017-02-21T07:19:16.798Z,2068
2017-02-21T07:20:21.930Z,2108
2017-02-21T07:21:27.065Z,1884
2017-02-21T07:22:31.192Z,1852
2017-02-21T07:23:35.360Z,1936
2017-02-21T07:24:40.494Z,2024
2017-02-21T07:25:44.664Z,1976
2017-02-21T07:26:50.761Z,1868
2017-02-21T07:27:55.892Z,1940
2017-02-21T07:29:01.986Z,2044
2017-02-21T07:30:08.107Z,2020
2017-02-21T07:31:13.208Z,2216
2017-02-21T07:32:19.303Z,2680
2017-02-21T07:33:25.395Z,2912
2017-02-21T07:34:30.536Z,3388
2017-02-21T07:35:36.649Z,3848
2017-02-21T07:36:39.826Z,3796
2017-02-21T07:37:45.921Z,3928
2017-02-21T07:38:50.078Z,3256
2017-02-21T07:39:56.177Z,3028
2017-02-21T07:41:01.289Z,2948
2017-02-21T07:42:04.462Z,3068
2017-02-21T07:43:10.556Z,3604
2017-02-21T07:44:15.686Z,3748
2017-02-21T07:45:21.793Z,3744
2017-02-21T07:46:27.895Z,3400
2017-02-21T07:47:33.991Z,2644
2017-02-21T07:48:40.095Z,2436
2017-02-21T07:49:45.225Z,2820
2017-02-21T07:50:48.412Z,2948
2017-02-21T07:51:53.555Z,3268
2017-02-21T07:52:59.665Z,3876
2017-02-21T07:54:05.750Z,5024
2017-02-21T07:55:09.050Z,5592
2017-02-21T07:56:14.178Z,6024
2017-02-21T07:57:20.284Z,5864
2017-02-21T07:58:24.435Z,7352
2017-02-21T07:59:30.524Z,10144
2017-02-21T08:00:34.652Z,9040
2017-02-21T08:01:39.819Z,5116
2017-02-21T08:02:44.029Z,4856
2017-02-21T08:03:50.130Z,6136
2017-02-21T08:04:55.258Z,6296
2017-02-21T08:06:00.391Z,7288
2017-02-21T08:07:06.505Z,4952
2017-02-21T08:08:11.616Z,4224
2017-02-21T08:09:17.727Z,3288
2017-02-21T08:10:22.834Z,3012
2017-02-21T08:11:27.962Z,3368
2017-02-21T08:12:33.092Z,4168
2017-02-21T08:13:39.311Z,4708
2017-02-21T08:14:44.498Z,4140
2017-02-21T08:15:49.630Z,5260
2017-02-21T08:16:53.757Z,5868
2017-02-21T08:17:58.907Z,7432
2017-02-21T08:19:04.023Z,7936
2017-02-21T08:20:09.133Z,9004
2017-02-21T08:21:15.231Z,8144
2017-02-21T08:22:20.365Z,6960
2017-02-21T08:23:26.510Z,5968
2017-02-21T08:24:30.691Z,5780
2017-02-21T08:25:36.792Z,7084
2017-02-21T08:26:40.944Z,7280
2017-02-21T08:27:46.050Z,7224
2017-02-21T08:28:52.134Z,6968
2017-02-21T08:29:57.271Z,6668
2017-02-21T08:31:03.364Z,6836
2017-02-21T08:32:08.505Z,6592
2017-02-21T08:33:14.581Z,6372
2017-02-21T08:34:20.680Z,7280
2017-02-21T08:35:26.783Z,8296
2017-02-21T08:36:31.921Z,7176
2017-02-21T08:37:36.087Z,5360
2017-02-21T08:38:42.204Z,4528
2017-02-21T08:39:47.313Z,4364
2017-02-21T08:40:51.505Z,5288
2017-02-21T08:41:57.603Z,4888
2017-02-21T08:43:02.720Z,6804
2017-02-21T08:44:08.823Z,6992
2017-02-21T08:45:13.923Z,7440
2017-02-21T08:46:19.055Z,8816
2017-02-21T08:47:24.236Z,8404
2017-02-21T08:48:30.308Z,8712
2017-02-21T08:49:35.467Z,8236
2017-02-21T08:50:40.595Z,8328
2017-02-21T08:51:46.695Z,7680
2017-02-21T08:52:51.794Z,6996
2017-02-21T08:53:57.025Z,7036
2017-02-21T08:55:03.124Z,6240
2017-02-21T08:56:08.230Z,6216
2017-02-21T08:57:12.391Z,5576
2017-02-21T08:58:17.528Z,5220
2017-02-21T08:59:22.683Z,5984
2017-02-21T09:00:26.837Z,6196
2017-02-21T09:01:31.947Z,6204
2017-02-21T09:02:38.060Z,5428
2017-02-21T09:03:42.224Z,5396
2017-02-21T09:04:47.347Z,5384
2017-02-21T09:05:51.525Z,3896
2017-02-21T09:06:57.623Z,5352
2017-02-21T09:08:03.721Z,5000
2017-02-21T09:09:08.864Z,3972
2017-02-21T09:10:14.960Z,3840
2017-02-21T09:11:20.096Z,4284
2017-02-21T09:12:24.233Z,4476
2017-02-21T09:13:29.416Z,4976
2017-02-21T09:14:34.553Z,5172
2017-02-21T09:15:40.704Z,5000
2017-02-21T09:16:44.861Z,6208
2017-02-21T09:17:48.055Z,6032
2017-02-21T09:18:53.186Z,5356
2017-02-21T09:19:59.294Z,5152
2017-02-21T09:21:05.387Z,5136
2017-02-21T09:22:10.501Z,5460
2017-02-21T09:23:16.619Z,5028
2017-02-21T09:24:20.808Z,4884
2017-02-21T09:25:26.910Z,4408
2017-02-21T09:26:32.039Z,4772
2017-02-21T09:27:38.143Z,5364
2017-02-21T09:28:42.414Z,5164
2017-02-21T09:29:48.522Z,4992
2017-02-21T09:30:51.698Z,5240
2017-02-21T09:31:55.844Z,5224
2017-02-21T09:33:00.008Z,4860
2017-02-21T09:34:06.107Z,4956
2017-02-21T09:35:11.240Z,5140
2017-02-21T09:36:16.369Z,5112
2017-02-21T09:37:19.549Z,5260
2017-02-21T09:38:25.765Z,6248
2017-02-21T09:39:30.876Z,5968
2017-02-21T09:40:37.076Z,5992
2017-02-21T09:41:43.244Z,5708
2017-02-21T09:42:49.336Z,6396
2017-02-21T09:43:54.478Z,6576
2017-02-21T09:45:00.681Z,6992
2017-02-21T09:46:05.791Z,6640
2017-02-21T09:47:11.895Z,5840
2017-02-21T09:48:17.002Z,5988
2017-02-21T09:49:23.105Z,6560
2017-02-21T09:50:27.385Z,6700
2017-02-21T09:51:33.482Z,6852
2017-02-21T09:52:37.618Z,6404
2017-02-21T09:53:41.789Z,6764
2017-02-21T09:54:46.924Z,6816
2017-02-21T09:55:53.032Z,6908
2017-02-21T09:56:58.159Z,7396
2017-02-21T09:58:02.327Z,6828
2017-02-21T09:59:06.489Z,6488
2017-02-21T10:00:11.613Z,6812
2017-02-21T10:01:16.757Z,5928
2017-02-21T10:02:19.956Z,5464
2017-02-21T10:03:26.064Z,4024
2017-02-21T10:04:32.162Z,3580
2017-02-21T10:05:36.356Z,3676
2017-02-21T10:06:41.460Z,3784
2017-02-21T10:07:46.629Z,5052
2017-02-21T10:08:51.735Z,4948
2017-02-21T10:09:56.875Z,6160
2017-02-21T10:11:00.098Z,7268
2017-02-21T10:12:05.224Z,7268
2017-02-21T10:13:09.398Z,5900
2017-02-21T10:14:14.499Z,6636
2017-02-21T10:15:19.640Z,4720
2017-02-21T10:16:24.762Z,4232
2017-02-21T10:17:29.904Z,6192
2017-02-21T10:18:36.009Z,6084
2017-02-21T10:19:42.129Z,6820
2017-02-21T10:20:47.248Z,8088
2017-02-21T10:21:52.348Z,10092
2017-02-21T10:22:58.449Z,9620
2017-02-21T10:24:04.555Z,9908
2017-02-21T10:25:10.653Z,9280
2017-02-21T10:26:15.795Z,8236
2017-02-21T10:27:21.895Z,8456
2017-02-21T10:28:26.046Z,7812
2017-02-21T10:29:31.181Z,18752
2017-02-21T10:30:36.311Z,7516
2017-02-21T10:31:40.449Z,8272
2017-02-21T10:32:46.550Z,9920
2017-02-21T10:33:51.676Z,9980
2017-02-21T10:34:57.775Z,9444
2017-02-21T10:36:03.885Z,9172
2017-02-21T10:37:09.018Z,6244
2017-02-21T10:38:14.123Z,5696
2017-02-21T10:39:18.284Z,6144
2017-02-21T10:40:24.378Z,7004
2017-02-21T10:41:30.543Z,8908
2017-02-21T10:42:35.674Z,8020
2017-02-21T10:43:39.810Z,8124
2017-02-21T10:44:45.912Z,8760
2017-02-21T10:45:50.079Z,8260
2017-02-21T10:46:55.189Z,9832
2017-02-21T10:48:00.328Z,8044
2017-02-21T10:49:03.514Z,6396
2017-02-21T10:50:08.643Z,5812
2017-02-21T10:51:13.764Z,8580
2017-02-21T10:52:19.864Z,7648
2017-02-21T10:53:25.973Z,5896
2017-02-21T10:54:32.078Z,5604
2017-02-21T10:55:37.205Z,5904
2017-02-21T10:56:41.377Z,7924
2017-02-21T10:57:46.513Z,20736
2017-02-21T10:58:51.648Z,12668
2017-02-21T10:59:55.766Z,10412
2017-02-21T11:01:00.888Z,8608
2017-02-21T11:02:06.987Z,8592
2017-02-21T11:03:12.125Z,8252
2017-02-21T11:04:17.280Z,9636
2017-02-21T11:05:22.402Z,30464
2017-02-21T11:06:28.576Z,11772
2017-02-21T11:07:34.696Z,13656
2017-02-21T11:08:40.789Z,12844
2017-02-21T11:09:45.977Z,11376
2017-02-21T11:10:50.128Z,10224
2017-02-21T11:11:56.232Z,9736
2017-02-21T11:13:02.338Z,7224
2017-02-21T11:14:06.483Z,7820
2017-02-21T11:15:11.617Z,9712
2017-02-21T11:16:17.752Z,10008
2017-02-21T11:17:23.857Z,9988
2017-02-21T11:18:29.964Z,9432
2017-02-21T11:19:35.193Z,7940
2017-02-21T11:20:40.321Z,10252
2017-02-21T11:21:46.417Z,8896
2017-02-21T11:22:52.573Z,8764
2017-02-21T11:23:58.678Z,10004
2017-02-21T11:25:03.805Z,7792
2017-02-21T11:26:09.906Z,6948
2017-02-21T11:27:15.043Z,7260
2017-02-21T11:28:20.175Z,5652
2017-02-21T11:29:26.282Z,6044
2017-02-21T11:30:31.447Z,6200
2017-02-21T11:31:37.560Z,5016
2017-02-21T11:32:43.668Z,4496
2017-02-21T11:33:48.810Z,4288
2017-02-21T11:34:52.012Z,6324
2017-02-21T11:35:57.148Z,7028
2017-02-21T11:37:03.261Z,6680
2017-02-21T11:38:09.418Z,5764
2017-02-21T11:39:13.553Z,6608
2017-02-21T11:40:17.714Z,9860
2017-02-21T11:41:22.872Z,8992
2017-02-21T11:42:28.978Z,8268
2017-02-21T11:43:35.077Z,7476
2017-02-21T11:44:40.249Z,4944
2017-02-21T11:45:46.333Z,4596
2017-02-21T11:46:51.462Z,5200
2017-02-21T11:47:57.557Z,5104
2017-02-21T11:49:03.676Z,5376
2017-02-21T11:50:09.809Z,5760
2017-02-21T11:51:14.895Z,10136
2017-02-21T11:52:18.194Z,7200
2017-02-21T11:53:23.333Z,6472
2017-02-21T11:54:27.480Z,6228
2017-02-21T11:55:33.572Z,6260
2017-02-21T11:56:36.771Z,6716
2017-02-21T11:57:40.948Z,7292
2017-02-21T11:58:45.121Z,8916
2017-02-21T11:59:50.227Z,10312
2017-02-21T12:00:55.353Z,9892
2017-02-21T12:02:01.447Z,9840
2017-02-21T12:03:04.609Z,9600
2017-02-21T12:04:09.703Z,8112
2017-02-21T12:05:15.842Z,8024
2017-02-21T12:06:21.926Z,9452
2017-02-21T12:07:28.026Z,9044
2017-02-21T12:08:33.158Z,9460
2017-02-21T12:09:39.232Z,10224
2017-02-21T12:10:44.341Z,9784
2017-02-21T12:11:50.439Z,9216
2017-02-21T12:12:55.576Z,9908
2017-02-21T12:14:00.710Z,10324
2017-02-21T12:15:06.814Z,10384
2017-02-21T12:16:12.917Z,10476
2017-02-21T12:17:19.022Z,10172
2017-02-21T12:18:24.145Z,8648
2017-02-21T12:19:28.285Z,8192
2017-02-21T12:20:34.386Z,7088
2017-02-21T12:21:39.513Z,6116
2017-02-21T12:22:43.669Z,6300
2017-02-21T12:23:49.763Z,6952
2017-02-21T12:24:55.863Z,8264
2017-02-21T12:27:05.146Z,6256
2017-02-21T12:28:11.243Z,6248
2017-02-21T12:29:16.373Z,6328
2017-02-21T12:30:21.528Z,6000
2017-02-21T12:31:27.606Z,6388
2017-02-21T12:32:31.805Z,6692
2017-02-21T12:33:35.964Z,7556
2017-02-21T12:34:41.209Z,6892
2017-02-21T12:35:47.312Z,6504
2017-02-21T12:36:53.418Z,6008
2017-02-21T12:37:58.549Z,5948
2017-02-21T12:39:02.693Z,5848
2017-02-21T12:40:08.796Z,5656
2017-02-21T12:41:14.905Z,5724
2017-02-21T12:42:20.996Z,6120
2017-02-21T12:43:26.131Z,7080
2017-02-21T12:44:31.255Z,6984
2017-02-21T12:45:37.351Z,6952
2017-02-21T12:46:42.489Z,6332
2017-02-21T12:47:47.604Z,6392
2017-02-21T12:48:53.707Z,7704
2017-02-21T12:49:58.837Z,6968
2017-02-21T12:51:03.009Z,6220
2017-02-21T12:52:09.098Z,5976
2017-02-21T12:53:15.221Z,5840
2017-02-21T12:54:21.327Z,5756
2017-02-21T12:55:26.516Z,5672
2017-02-21T12:56:29.695Z,5608
2017-02-21T12:57:34.848Z,5620
2017-02-21T12:58:39.969Z,5852
2017-02-21T12:59:46.078Z,6176
2017-02-21T13:00:52.181Z,6344
2017-02-21T13:01:57.308Z,6432
2017-02-21T13:03:00.470Z,6140
2017-02-21T13:04:05.603Z,6132
2017-02-21T13:05:09.795Z,6156
2017-02-21T13:06:14.917Z,5960
2017-02-21T13:07:20.063Z,6064
2017-02-21T13:08:26.173Z,6312
2017-02-21T13:09:32.292Z,6328
2017-02-21T13:10:36.439Z,8064
2017-02-21T13:11:42.544Z,8788
2017-02-21T13:12:46.675Z,7364
2017-02-21T13:13:51.986Z,6636
2017-02-21T13:14:57.126Z,6764
2017-02-21T13:16:02.227Z,8008
2017-02-21T13:17:07.347Z,8900
2017-02-21T13:18:12.472Z,7948
2017-02-21T13:19:17.577Z,8212
2017-02-21T13:20:21.745Z,8304
2017-02-21T13:21:27.823Z,7456
2017-02-21T13:22:32.944Z,6960
2017-02-21T13:23:38.074Z,6428
2017-02-21T13:24:44.170Z,6076
2017-02-21T13:25:48.344Z,6532
2017-02-21T13:26:54.438Z,6776
2017-02-21T13:27:59.564Z,6608
2017-02-21T13:29:04.663Z,6348
2017-02-21T13:30:10.769Z,7124
2017-02-21T13:31:15.910Z,7040
2017-02-21T13:32:21.064Z,6488
2017-02-21T13:33:27.168Z,6668
2017-02-21T13:34:32.256Z,6872
2017-02-21T13:35:37.394Z,6448
2017-02-21T13:36:42.521Z,6688
2017-02-21T13:37:48.615Z,6800
2017-02-21T13:38:54.842Z,7352
2017-02-21T13:39:59.863Z,7352
2017-02-21T13:41:04.046Z,6536
2017-02-21T13:42:09.177Z,6872
2017-02-21T13:43:13.390Z,6740
2017-02-21T13:44:18.520Z,6980
2017-02-21T13:45:24.622Z,6992
2017-02-21T13:46:29.741Z,6732
2017-02-21T13:47:34.880Z,6556
2017-02-21T13:48:40.055Z,6584
2017-02-21T13:49:46.166Z,6560
2017-02-21T13:50:50.313Z,6472
2017-02-21T13:51:55.445Z,6320
2017-02-21T13:53:01.542Z,5384
2017-02-21T13:54:06.670Z,4352
2017-02-21T13:55:11.803Z,3964
2017-02-21T13:56:17.903Z,4392
2017-02-21T13:57:23.143Z,4492
2017-02-21T13:58:27.195Z,4096
2017-02-21T13:59:32.355Z,4328
2017-02-21T14:00:38.542Z,5732
2017-02-21T14:01:43.681Z,5248
2017-02-21T14:03:13.569Z,5116
2017-02-21T14:04:17.797Z,5212
2017-02-21T14:05:23.881Z,5616
2017-02-21T14:06:29.231Z,5872
2017-02-21T14:07:33.379Z,5848
2017-02-21T14:08:38.530Z,5664
2017-02-21T14:09:43.656Z,5784
2017-02-21T14:10:48.774Z,5676
2017-02-21T14:11:53.963Z,5900
2017-02-21T14:13:00.283Z,5616
2017-02-21T14:14:06.398Z,4560
2017-02-21T14:15:11.534Z,4352
2017-02-21T14:16:17.630Z,4608
2017-02-21T14:17:22.772Z,4980
2017-02-21T14:18:26.929Z,5360
2017-02-21T14:19:32.029Z,5420
2017-02-21T14:20:37.158Z,5144
2017-02-21T14:21:41.339Z,4500
2017-02-21T14:22:47.429Z,4120
2017-02-21T14:23:51.560Z,3760
2017-02-21T14:24:56.686Z,3916
2017-02-21T14:26:01.836Z,4524
2017-02-21T14:27:06.970Z,4856
2017-02-21T14:28:13.074Z,4952
2017-02-21T14:29:18.211Z,4544
2017-02-21T14:30:24.313Z,4484
2017-02-21T14:31:30.417Z,4864
2017-02-21T14:32:36.518Z,4960
2017-02-21T14:33:41.630Z,4508
2017-02-21T14:34:47.732Z,4548
2017-02-21T14:35:52.873Z,4800
2017-02-21T14:36:58.008Z,4736
2017-02-21T14:38:02.145Z,4104
2017-02-21T14:39:06.322Z,4144
2017-02-21T14:40:10.462Z,4320
2017-02-21T14:41:16.680Z,4140
2017-02-21T14:42:20.820Z,4368
2017-02-21T14:43:24.991Z,4632
2017-02-21T14:44:28.157Z,4996
2017-02-21T14:45:31.324Z,4656
2017-02-21T14:46:36.454Z,4040
2017-02-21T14:47:41.565Z,4004
2017-02-21T14:48:47.683Z,4144
2017-02-21T14:49:53.784Z,3784
2017-02-21T14:50:59.895Z,3560
2017-02-21T14:52:05.018Z,3332
2017-02-21T14:53:11.120Z,3156
2017-02-21T14:54:16.293Z,3176
2017-02-21T14:55:19.487Z,3624
2017-02-21T14:56:25.690Z,3996
2017-02-21T14:57:30.818Z,3684
2017-02-21T14:58:36.924Z,3584
2017-02-21T14:59:42.063Z,3740
2017-02-21T15:00:47.206Z,4140
2017-02-21T15:01:52.304Z,3800
2017-02-21T15:02:58.410Z,3544
2017-02-21T15:04:03.520Z,3852
2017-02-21T15:05:09.676Z,4624
2017-02-21T15:06:15.748Z,4340
2017-02-21T15:07:21.846Z,3728
2017-02-21T15:08:26.980Z,3580
2017-02-21T15:09:32.120Z,3536
2017-02-21T15:10:37.245Z,3592